createdAt,value
2022-08-22T00:01:53.488Z,55.84
2022-08-22T00:02:41.623Z,42.02
2022-08-22T00:03:07.177Z,50.78
2022-08-22T00:04:44.785Z,55.99
2022-08-22T00:07:23.371Z,56.98
2022-08-22T00:09:59.745Z,55.74
2022-08-22T00:12:29.528Z,57.22
2022-08-22T00:15:05.865Z,56.52
2022-08-22T00:17:35.402Z,56.39
2022-08-22T00:20:30.902Z,56.49
2022-08-22T00:23:12.435Z,57.70
2022-08-22T00:25:57.557Z,57.61
2022-08-22T00:28:42.548Z,57.81
2022-08-22T00:31:15.941Z,58.15
2022-08-22T00:34:00.541Z,58.48
2022-08-22T00:36:42.312Z,59.63
2022-08-22T00:39:21.215Z,58.33
2022-08-22T00:41:59.817Z,58.86
2022-08-22T00:44:44.508Z,59.34
2022-08-22T00:47:47.677Z,58.73
2022-08-22T00:50:35.332Z,58.30
2022-08-22T00:53:20.084Z,57.81
2022-08-22T00:55:57.658Z,59.00
2022-08-22T00:58:30.065Z,58.59
2022-08-22T01:01:04.008Z,59.01
2022-08-22T01:03:42.494Z,59.30
2022-08-22T01:06:34.945Z,59.19
2022-08-22T01:09:27.341Z,59.86
2022-08-22T01:12:24.517Z,59.81
2022-08-22T01:15:07.951Z,59.63
2022-08-22T01:17:40.453Z,60.31
2022-08-22T01:20:37.461Z,60.50
2022-08-22T01:23:24.983Z,60.26
2022-08-22T01:26:19.720Z,60.99
2022-08-22T01:29:10.453Z,61.73
2022-08-22T01:32:04.561Z,61.36
2022-08-22T01:34:42.012Z,61.70
2022-08-22T01:37:23.563Z,62.29
2022-08-22T01:40:27.357Z,62.51
2022-08-22T01:43:10.736Z,63.54
2022-08-22T01:45:54.517Z,62.51
2022-08-22T01:48:48.325Z,63.32
2022-08-22T01:51:22.512Z,62.81
2022-08-22T01:54:04.572Z,62.80
2022-08-22T01:56:40.945Z,63.13
2022-08-22T01:59:14.977Z,63.27
2022-08-22T02:01:50.636Z,63.23
2022-08-22T02:04:47.777Z,63.74
2022-08-22T02:07:32.010Z,63.42
2022-08-22T02:10:14.009Z,64.26
2022-08-22T02:12:49.797Z,63.81
2022-08-22T02:15:19.291Z,63.84
2022-08-22T02:17:51.240Z,64.97
2022-08-22T02:20:29.950Z,63.91
2022-08-22T02:23:30.764Z,65.13
2022-08-22T02:26:16.877Z,64.95
2022-08-22T02:28:56.951Z,64.42
2022-08-22T02:31:38.713Z,66.04
2022-08-22T02:34:24.635Z,66.74
2022-08-22T02:37:02.369Z,66.10
2022-08-22T02:39:55.308Z,65.78
2022-08-22T02:42:42.162Z,66.74
2022-08-22T02:45:26.965Z,67.16
2022-08-22T02:48:05.372Z,66.34
2022-08-22T02:50:43.584Z,66.85
2022-08-22T02:53:23.857Z,68.04
2022-08-22T02:55:59.566Z,68.18
2022-08-22T02:59:17.350Z,68.02
2022-08-22T03:01:46.072Z,67.32
2022-08-22T03:04:23.031Z,67.93
2022-08-22T03:06:58.564Z,67.25
2022-08-22T03:09:29.417Z,68.97
2022-08-22T03:12:14.345Z,67.20
2022-08-22T03:14:45.238Z,67.33
2022-08-22T03:17:22.737Z,68.42
2022-08-22T03:19:53.000Z,68.20
2022-08-22T03:22:23.488Z,68.06
2022-08-22T03:25:00.058Z,69.51
2022-08-22T03:27:36.267Z,68.66
2022-08-22T03:30:11.761Z,69.21
2022-08-22T03:32:56.760Z,69.91
2022-08-22T03:35:36.513Z,70.52
2022-08-22T03:38:28.600Z,70.75
2022-08-22T03:41:01.259Z,69.58
2022-08-22T03:43:52.423Z,70.55
2022-08-22T03:46:52.856Z,71.97
2022-08-22T03:49:22.287Z,71.13
2022-08-22T03:52:33.877Z,72.52
2022-08-22T03:55:19.170Z,70.69
2022-08-22T03:58:27.877Z,69.78
2022-08-22T04:01:00.890Z,69.35
2022-08-22T04:03:54.793Z,70.91
2022-08-22T04:06:56.434Z,70.89
2022-08-22T04:09:29.170Z,70.53
2022-08-22T04:12:23.988Z,70.34
2022-08-22T04:15:09.414Z,71.32
2022-08-22T04:17:55.732Z,71.68
2022-08-22T04:21:01.591Z,72.33
2022-08-22T04:23:49.273Z,72.10
2022-08-22T04:26:37.888Z,72.17
2022-08-22T04:29:45.101Z,71.63
2022-08-22T04:32:20.530Z,72.13
2022-08-22T04:34:54.951Z,71.57
2022-08-22T04:37:57.493Z,71.58
2022-08-22T04:40:40.297Z,71.34
2022-08-22T04:43:25.489Z,71.74
2022-08-22T04:46:00.329Z,72.12
2022-08-22T04:48:40.836Z,71.65
2022-08-22T04:51:23.527Z,71.09
2022-08-22T04:53:49.922Z,70.35
2022-08-22T04:56:30.784Z,71.46
2022-08-22T04:59:00.157Z,70.42
2022-08-22T05:01:48.201Z,70.80
2022-08-22T05:04:20.196Z,70.43
2022-08-22T05:06:51.055Z,70.00
2022-08-22T05:09:24.240Z,71.40
2022-08-22T05:11:54.057Z,70.98
2022-08-22T05:14:40.311Z,72.95
2022-08-22T05:17:09.971Z,71.35
2022-08-22T05:19:40.950Z,71.15
2022-08-22T05:22:14.456Z,72.06
2022-08-22T05:24:44.219Z,72.19
2022-08-22T05:27:14.377Z,71.88
2022-08-22T05:29:43.057Z,71.22
2022-08-22T05:32:36.570Z,70.45
2022-08-22T05:35:05.069Z,69.22
2022-08-22T05:37:49.713Z,69.53
2022-08-22T05:40:21.389Z,68.50
2022-08-22T05:42:48.078Z,69.34
2022-08-22T05:45:17.085Z,67.21
2022-08-22T05:47:48.452Z,66.14
2022-08-22T05:50:57.131Z,65.58
2022-08-22T05:53:30.613Z,64.28
2022-08-22T05:56:02.212Z,64.30
2022-08-22T05:58:43.790Z,64.04
2022-08-22T06:01:31.418Z,62.05
2022-08-22T06:04:06.818Z,61.84
2022-08-22T06:06:57.761Z,62.37
2022-08-22T06:09:48.561Z,61.10
2022-08-22T06:12:21.833Z,60.50
2022-08-22T06:15:12.612Z,60.84
2022-08-22T06:17:44.789Z,59.48
2022-08-22T06:20:17.233Z,59.73
2022-08-22T06:22:51.475Z,58.73
2022-08-22T06:25:34.934Z,58.50
2022-08-22T06:28:09.864Z,58.09
2022-08-22T06:30:38.248Z,57.32
2022-08-22T06:33:12.269Z,57.41
2022-08-22T06:36:01.463Z,55.82
2022-08-22T06:38:33.479Z,55.33
2022-08-22T06:41:02.989Z,54.86
2022-08-22T06:43:39.758Z,54.60
2022-08-22T06:46:06.878Z,53.54
2022-08-22T06:48:34.773Z,52.09
2022-08-22T06:51:01.671Z,51.21
2022-08-22T06:53:48.848Z,50.45
2022-08-22T06:56:24.536Z,49.99
2022-08-22T06:58:55.020Z,48.05
2022-08-22T07:01:24.135Z,48.36
2022-08-22T07:03:57.400Z,47.58
2022-08-22T07:06:46.200Z,47.97
2022-08-22T07:09:26.491Z,47.54
2022-08-22T07:11:55.485Z,47.61
2022-08-22T07:14:35.263Z,46.82
2022-08-22T07:17:04.345Z,47.21
2022-08-22T07:19:37.907Z,48.09
2022-08-22T07:22:28.705Z,45.94
2022-08-22T07:24:59.911Z,45.72
2022-08-22T07:27:38.626Z,46.60
2022-08-22T07:30:10.077Z,46.81
2022-08-22T07:32:58.833Z,44.96
2022-08-22T07:35:53.539Z,46.20
2022-08-22T07:38:42.740Z,47.02
2022-08-22T07:41:21.960Z,47.13
2022-08-22T07:43:51.480Z,46.65
2022-08-22T07:46:37.316Z,46.18
2022-08-22T07:49:14.274Z,45.08
2022-08-22T07:51:50.653Z,45.01
2022-08-22T07:54:27.209Z,45.39
2022-08-22T07:56:59.204Z,43.97
2022-08-22T07:59:28.106Z,44.12
2022-08-22T08:01:57.322Z,44.68
2022-08-22T08:04:26.400Z,45.71
2022-08-22T08:06:56.528Z,44.41
2022-08-22T08:09:24.022Z,44.99
2022-08-22T08:11:53.311Z,45.16
2022-08-22T08:14:23.572Z,46.51
2022-08-22T08:17:05.889Z,46.64
2022-08-22T08:19:34.896Z,46.80
2022-08-22T08:22:02.166Z,47.02
2022-08-22T08:24:40.524Z,45.81
2022-08-22T08:27:41.173Z,45.17
2022-08-22T08:30:40.236Z,44.77
2022-08-22T08:33:24.441Z,44.29
2022-08-22T08:36:03.193Z,43.76
2022-08-22T08:38:36.574Z,43.32
2022-08-22T08:41:40.192Z,42.00
2022-08-22T08:44:28.640Z,42.75
2022-08-22T08:47:07.046Z,43.20
2022-08-22T08:49:43.027Z,43.35
2022-08-22T08:52:34.493Z,43.47
2022-08-22T08:55:26.086Z,43.37
2022-08-22T08:57:59.444Z,44.09
2022-08-22T09:00:39.547Z,43.82
2022-08-22T09:06:42.303Z,42.31
2022-08-22T09:09:15.076Z,41.67
2022-08-22T09:12:03.064Z,42.84
2022-08-22T09:14:45.789Z,41.15
2022-08-22T09:17:21.190Z,41.08
2022-08-22T09:20:17.593Z,40.99
2022-08-22T09:23:03.253Z,40.33
2022-08-22T09:25:51.094Z,39.69
2022-08-22T09:28:30.302Z,39.28
2022-08-22T09:31:16.975Z,38.52
2022-08-22T09:34:09.092Z,37.25
2022-08-22T09:37:29.502Z,36.39
2022-08-22T09:40:15.326Z,43.22
2022-08-22T09:40:17.633Z,37.20
2022-08-22T09:42:58.105Z,37.76
2022-08-22T09:45:36.705Z,36.22
2022-08-22T09:48:16.761Z,34.42
2022-08-22T09:51:28.615Z,34.55
2022-08-22T09:56:18.920Z,34.78
2022-08-22T09:59:00.424Z,34.46
2022-08-22T10:01:32.862Z,34.84
2022-08-22T10:04:19.561Z,34.70
2022-08-22T10:06:58.117Z,35.27
2022-08-22T10:09:48.863Z,34.98
2022-08-22T10:12:30.539Z,33.69
2022-08-22T10:15:06.926Z,34.58
2022-08-22T10:17:41.412Z,33.27
2022-08-22T10:20:23.103Z,33.98
2022-08-22T10:22:58.892Z,34.85
2022-08-22T10:25:41.748Z,35.00
2022-08-22T10:28:32.756Z,34.16
2022-08-22T10:31:16.023Z,35.15
2022-08-22T10:33:51.185Z,35.33
2022-08-22T10:36:26.076Z,34.31
2022-08-22T10:38:55.955Z,33.96
2022-08-22T10:41:46.343Z,33.35
2022-08-22T10:44:30.950Z,33.89
2022-08-22T10:47:20.978Z,33.81
2022-08-22T10:49:54.065Z,33.92
2022-08-22T10:52:24.081Z,34.21
2022-08-22T10:54:53.499Z,34.71
2022-08-22T10:57:36.533Z,34.29
2022-08-22T11:00:33.922Z,33.76
2022-08-22T11:03:21.792Z,31.97
2022-08-22T11:05:51.315Z,31.83
2022-08-22T11:08:23.741Z,30.82
2022-08-22T11:11:32.750Z,31.15
2022-08-22T11:14:19.003Z,31.17
2022-08-22T11:16:59.442Z,31.02
2022-08-22T11:19:33.642Z,30.44
2022-08-22T11:22:21.389Z,30.80
2022-08-22T11:25:28.648Z,30.10
2022-08-22T11:30:10.929Z,30.17
2022-08-22T11:33:10.279Z,30.20
2022-08-22T11:35:49.536Z,30.85
2022-08-22T11:38:36.613Z,29.80
2022-08-22T11:41:15.063Z,30.51
2022-08-22T11:43:51.933Z,29.57
2022-08-22T11:46:27.195Z,29.00
2022-08-22T11:49:21.477Z,29.03
2022-08-22T11:51:59.235Z,29.77
2022-08-22T11:54:47.404Z,28.92
2022-08-22T11:57:26.608Z,29.36
2022-08-22T12:00:12.944Z,29.86
2022-08-22T12:02:53.249Z,29.53
2022-08-22T12:05:28.241Z,29.18
2022-08-22T12:08:00.414Z,30.12
2022-08-22T12:10:32.533Z,28.98
2022-08-22T12:13:15.019Z,29.52
2022-08-22T12:16:16.027Z,30.46
2022-08-22T12:18:52.702Z,29.97
2022-08-22T12:21:43.769Z,30.25
2022-08-22T12:24:38.359Z,29.99
2022-08-22T12:27:29.162Z,30.27
2022-08-22T12:30:25.486Z,29.49
2022-08-22T12:33:06.958Z,30.07
2022-08-22T12:35:41.978Z,29.39
2022-08-22T12:38:46.636Z,29.97
2022-08-22T12:41:28.028Z,31.08
2022-08-22T12:44:09.102Z,29.74
2022-08-22T12:47:04.542Z,29.45
2022-08-22T12:49:52.808Z,29.17
2022-08-22T12:53:01.326Z,29.64
2022-08-22T12:55:56.662Z,29.97
2022-08-22T12:58:46.558Z,29.27
2022-08-22T13:01:18.415Z,29.47
2022-08-22T13:03:50.365Z,28.58
2022-08-22T13:06:34.902Z,29.32
2022-08-22T13:09:16.855Z,27.98
2022-08-22T13:11:47.209Z,30.89
2022-08-22T13:14:19.637Z,28.70
2022-08-22T13:16:52.946Z,28.36
2022-08-22T13:19:26.987Z,30.15
2022-08-22T13:22:02.245Z,28.75
2022-08-22T13:24:51.844Z,29.18
2022-08-22T13:27:27.122Z,29.74
2022-08-22T13:30:04.580Z,28.68
2022-08-22T13:32:53.274Z,28.92
2022-08-22T13:35:32.522Z,29.12
2022-08-22T13:38:06.502Z,28.56
2022-08-22T13:40:34.051Z,28.28
2022-08-22T13:43:11.103Z,29.44
2022-08-22T13:45:38.955Z,28.32
2022-08-22T13:48:11.613Z,28.54
2022-08-22T13:51:06.076Z,28.11
2022-08-22T13:53:40.949Z,28.21
2022-08-22T13:56:15.928Z,28.66
2022-08-22T13:58:48.799Z,27.90
2022-08-22T14:01:38.985Z,27.90
2022-08-22T14:04:34.599Z,28.66
2022-08-22T14:07:03.640Z,28.31
2022-08-22T14:09:53.011Z,27.44
2022-08-22T14:12:33.323Z,27.71
2022-08-22T14:15:02.786Z,28.20
2022-08-22T14:17:42.707Z,26.71
2022-08-22T14:20:11.132Z,27.98
2022-08-22T14:22:40.026Z,27.61
2022-08-22T14:25:18.686Z,27.07
2022-08-22T14:27:52.463Z,26.74
2022-08-22T14:30:24.451Z,28.29
2022-08-22T14:33:15.810Z,28.13
2022-08-22T14:35:52.842Z,27.47
2022-08-22T14:38:36.865Z,27.69
2022-08-22T14:41:52.283Z,27.53
2022-08-22T14:44:30.766Z,27.47
2022-08-22T14:47:01.097Z,28.05
2022-08-22T14:49:49.314Z,27.08
2022-08-22T14:52:37.299Z,27.88
2022-08-22T14:55:09.978Z,27.91
2022-08-22T14:57:43.470Z,29.29
2022-08-22T15:00:12.361Z,28.61
2022-08-22T15:02:40.335Z,28.13
2022-08-22T15:05:21.040Z,28.66
2022-08-22T15:07:54.992Z,27.59
2022-08-22T15:10:31.896Z,28.54
2022-08-22T15:13:03.252Z,28.79
2022-08-22T15:15:49.828Z,28.98
2022-08-22T15:18:33.859Z,29.58
2022-08-22T15:21:41.270Z,29.91
2022-08-22T15:24:12.857Z,29.92
2022-08-22T15:26:50.063Z,30.07
2022-08-22T15:29:26.992Z,30.31
2022-08-22T15:31:58.920Z,30.75
2022-08-22T15:34:41.881Z,30.46
2022-08-22T15:37:17.434Z,29.99
2022-08-22T15:40:11.909Z,29.29
2022-08-22T15:42:47.805Z,30.83
2022-08-22T15:45:20.265Z,29.13
2022-08-22T15:47:52.230Z,28.80
2022-08-22T15:50:39.246Z,26.68
2022-08-22T15:53:43.644Z,27.77
2022-08-22T15:56:13.060Z,29.00
2022-08-22T15:58:49.046Z,28.88
2022-08-22T16:01:22.559Z,27.88
2022-08-22T16:04:02.594Z,29.10
2022-08-22T16:06:52.243Z,27.92
2022-08-22T16:09:42.701Z,29.72
2022-08-22T16:12:26.428Z,27.88
2022-08-22T16:14:53.564Z,31.06
2022-08-22T16:17:43.846Z,29.06
2022-08-22T16:20:19.293Z,29.74
2022-08-22T16:22:58.642Z,29.48
2022-08-22T16:25:54.220Z,28.77
2022-08-22T16:28:36.055Z,28.50
2022-08-22T16:31:37.223Z,29.11
2022-08-22T16:34:16.101Z,29.21
2022-08-22T16:36:44.912Z,28.64
2022-08-22T16:39:21.636Z,27.27
2022-08-22T16:41:51.578Z,28.56
2022-08-22T16:44:30.166Z,29.73
2022-08-22T16:47:08.640Z,29.21
2022-08-22T16:49:40.356Z,28.98
2022-08-22T16:52:25.126Z,28.62
2022-08-22T16:55:00.348Z,28.68
2022-08-22T16:58:05.392Z,29.08
2022-08-22T17:00:58.212Z,29.19
2022-08-22T17:03:49.747Z,29.78
2022-08-22T17:06:37.516Z,28.89
2022-08-22T17:09:30.467Z,30.42
2022-08-22T17:12:19.360Z,30.24
2022-08-22T17:14:58.274Z,29.35
2022-08-22T17:17:50.175Z,29.52
2022-08-22T17:20:34.324Z,30.39
2022-08-22T17:23:13.440Z,30.40
2022-08-22T17:25:54.794Z,29.88
2022-08-22T17:28:42.009Z,30.62
2022-08-22T17:31:17.318Z,30.54
2022-08-22T17:33:52.418Z,31.35
2022-08-22T17:36:40.764Z,30.44
2022-08-22T17:39:23.703Z,31.80
2022-08-22T17:42:20.893Z,31.73
2022-08-22T17:44:54.106Z,31.89
2022-08-22T17:47:59.277Z,31.42
2022-08-22T17:50:52.752Z,31.97
2022-08-22T17:53:45.031Z,32.76
2022-08-22T17:56:26.960Z,32.62
2022-08-22T17:59:04.823Z,32.41
2022-08-22T18:02:01.810Z,32.14
2022-08-22T18:04:33.306Z,31.77
2022-08-22T18:07:38.755Z,31.68
2022-08-22T18:10:19.584Z,32.46
2022-08-22T18:13:03.562Z,32.09
2022-08-22T18:15:42.282Z,32.19
2022-08-22T18:18:19.702Z,32.43
2022-08-22T18:20:50.179Z,32.35
2022-08-22T18:23:35.606Z,33.23
2022-08-22T18:26:25.151Z,33.61
2022-08-22T18:29:15.076Z,33.28
2022-08-22T18:31:49.648Z,33.73
2022-08-22T18:34:20.604Z,34.73
2022-08-22T18:37:11.489Z,35.43
2022-08-22T18:39:46.577Z,35.80
2022-08-22T18:42:30.276Z,37.03
2022-08-22T18:44:56.781Z,36.66
2022-08-22T18:47:27.293Z,37.94
2022-08-22T18:49:55.236Z,38.49
2022-08-22T18:52:24.747Z,37.82
2022-08-22T18:55:12.528Z,38.98
2022-08-22T18:58:00.925Z,39.14
2022-08-22T19:01:05.466Z,40.39
2022-08-22T19:03:40.732Z,41.11
2022-08-22T19:06:22.352Z,40.99
2022-08-22T19:09:26.276Z,40.50
2022-08-22T19:11:58.209Z,40.29
2022-08-22T19:14:46.269Z,41.51
2022-08-22T19:17:41.606Z,41.26
2022-08-22T19:20:39.811Z,42.42
2022-08-22T19:23:33.871Z,43.86
2022-08-22T19:26:19.106Z,42.70
2022-08-22T19:28:45.737Z,43.63
2022-08-22T19:31:42.721Z,42.49
2022-08-22T19:34:15.249Z,43.67
2022-08-22T19:36:42.033Z,42.88
2022-08-22T19:39:40.398Z,43.31
2022-08-22T19:42:19.883Z,44.08
2022-08-22T19:45:01.442Z,44.03
2022-08-22T19:47:37.468Z,43.74
2022-08-22T19:50:10.031Z,44.91
2022-08-22T19:53:08.479Z,45.15
2022-08-22T19:55:38.076Z,44.84
2022-08-22T19:58:35.391Z,44.22
2022-08-22T20:01:20.890Z,45.84
2022-08-22T20:04:10.113Z,46.25
2022-08-22T20:06:55.964Z,46.68
2022-08-22T20:09:41.183Z,46.40
2022-08-22T20:12:23.332Z,47.11
2022-08-22T20:14:50.292Z,46.85
2022-08-22T20:17:43.720Z,47.38
2022-08-22T20:20:35.666Z,46.16
2022-08-22T20:23:17.413Z,45.62
2022-08-22T20:25:50.179Z,45.07
2022-08-22T20:28:38.697Z,44.85
2022-08-22T20:31:10.672Z,45.90
2022-08-22T20:33:40.145Z,46.53
2022-08-22T20:36:27.094Z,46.28
2022-08-22T20:38:59.797Z,46.15
2022-08-22T20:41:32.509Z,45.48
2022-08-22T20:44:15.893Z,45.67
2022-08-22T20:46:53.677Z,46.45
2022-08-22T20:49:32.151Z,47.24
2022-08-22T20:52:07.111Z,48.04
2022-08-22T20:54:41.502Z,49.05
2022-08-22T20:57:17.613Z,48.82
2022-08-22T20:59:57.724Z,50.24
2022-08-22T21:02:24.142Z,51.39
2022-08-22T21:04:50.615Z,50.66
2022-08-22T21:07:25.781Z,50.06
2022-08-22T21:10:39.637Z,50.45
2022-08-22T21:13:26.309Z,50.21
2022-08-22T21:15:54.072Z,50.01
2022-08-22T21:18:42.555Z,50.79
2022-08-22T21:21:24.631Z,51.07
2022-08-22T21:24:02.156Z,52.13
2022-08-22T21:26:36.425Z,51.33
2022-08-22T21:29:12.438Z,51.27
2022-08-22T21:31:47.869Z,51.00
2022-08-22T21:34:21.169Z,52.64
2022-08-22T21:36:51.142Z,52.11
2022-08-22T21:39:19.728Z,52.70
2022-08-22T21:42:09.252Z,52.44
2022-08-22T21:44:38.409Z,53.42
2022-08-22T21:47:30.804Z,54.22
2022-08-22T21:50:12.967Z,53.72
2022-08-22T21:52:44.156Z,53.55
2022-08-22T21:55:24.175Z,53.45
2022-08-22T21:58:22.026Z,54.35
2022-08-22T22:01:25.062Z,54.57
2022-08-22T22:03:54.406Z,55.33
2022-08-22T22:06:20.856Z,55.73
2022-08-22T22:08:47.324Z,55.23
2022-08-22T22:11:14.838Z,55.73
2022-08-22T22:13:41.600Z,55.01
2022-08-22T22:16:09.636Z,55.48
2022-08-22T22:18:37.385Z,56.92
2022-08-22T22:21:04.173Z,56.46
2022-08-22T22:23:30.832Z,56.73
2022-08-22T22:26:00.726Z,56.68
2022-08-22T22:28:32.854Z,57.16
2022-08-22T22:30:59.585Z,56.89
2022-08-22T22:33:29.853Z,57.19
2022-08-22T22:36:00.410Z,58.87
2022-08-22T22:38:26.868Z,57.92
2022-08-22T22:40:53.411Z,58.82
2022-08-22T22:43:20.248Z,57.87
2022-08-22T22:45:46.757Z,58.22
2022-08-22T22:48:17.411Z,58.58
2022-08-22T22:50:51.683Z,59.30
2022-08-22T22:53:19.935Z,59.02
2022-08-22T22:55:59.712Z,59.73
2022-08-22T22:58:27.429Z,60.56
2022-08-22T23:00:54.111Z,60.14
2022-08-22T23:03:20.846Z,60.52
2022-08-22T23:05:47.316Z,60.95
2022-08-22T23:08:13.781Z,61.55
2022-08-22T23:10:40.302Z,60.52
2022-08-22T23:13:06.873Z,61.00
2022-08-22T23:15:33.523Z,61.26
2022-08-22T23:18:00.244Z,60.76
2022-08-22T23:20:26.924Z,60.54
2022-08-22T23:22:53.432Z,60.37
2022-08-22T23:25:19.970Z,61.57
2022-08-22T23:27:48.685Z,61.25
2022-08-22T23:30:19.345Z,62.75
2022-08-22T23:32:45.795Z,62.40
2022-08-22T23:35:12.304Z,62.81
2022-08-22T23:37:38.764Z,62.25
2022-08-22T23:40:07.803Z,62.15
2022-08-22T23:42:34.449Z,62.57
2022-08-22T23:45:00.920Z,62.62
2022-08-22T23:47:27.371Z,62.73
2022-08-22T23:49:53.964Z,63.75
2022-08-22T23:52:20.792Z,62.70
2022-08-22T23:54:47.546Z,62.91
2022-08-22T23:57:20.834Z,63.50
2022-08-22T23:59:57.902Z,63.18
